createdAt,value
2022-12-26T00:00:00.636Z,9.70
2022-12-26T00:04:49.437Z,9.71
2022-12-26T00:08:31.004Z,9.72
2022-12-26T00:12:35.326Z,9.71
2022-12-26T00:16:38.754Z,9.71
2022-12-26T00:20:45.131Z,9.67
2022-12-26T00:24:51.306Z,9.67
2022-12-26T00:28:55.700Z,9.63
2022-12-26T00:32:58.755Z,9.62
2022-12-26T00:37:03.025Z,9.64
2022-12-26T00:41:07.296Z,9.65
2022-12-26T00:45:11.134Z,9.63
2022-12-26T00:49:14.324Z,9.63
2022-12-26T00:53:20.886Z,9.63
2022-12-26T00:57:24.652Z,9.63
2022-12-26T01:01:30.887Z,9.64
2022-12-26T01:05:34.327Z,9.67
2022-12-26T01:09:39.332Z,9.70
2022-12-26T01:13:43.057Z,9.67
2022-12-26T01:17:46.098Z,9.69
2022-12-26T01:21:49.649Z,9.69
2022-12-26T01:26:18.132Z,9.69
2022-12-26T01:30:18.161Z,9.69
2022-12-26T01:34:21.241Z,9.68
2022-12-26T01:38:24.704Z,9.68
2022-12-26T01:42:38.485Z,9.68
2022-12-26T01:46:45.711Z,9.67
2022-12-26T01:50:55.101Z,9.66
2022-12-26T01:54:58.892Z,9.68
2022-12-26T01:59:07.475Z,9.67
2022-12-26T02:03:28.404Z,9.66
2022-12-26T02:07:33.378Z,9.65
2022-12-26T02:11:39.230Z,9.67
2022-12-26T02:15:45.212Z,9.69
2022-12-26T02:19:59.131Z,9.68
2022-12-26T02:24:37.593Z,9.68
2022-12-26T02:28:59.114Z,9.69
2022-12-26T02:33:32.775Z,9.71
2022-12-26T02:37:52.982Z,9.72
2022-12-26T02:42:11.938Z,9.71
2022-12-26T02:46:44.417Z,9.69
2022-12-26T02:51:18.474Z,9.67
2022-12-26T02:55:44.605Z,9.71
2022-12-26T03:00:12.570Z,9.70
2022-12-26T03:04:36.853Z,9.72
2022-12-26T03:09:04.451Z,9.74
2022-12-26T03:13:13.369Z,9.76
2022-12-26T03:17:25.216Z,9.74
2022-12-26T03:21:34.870Z,9.73
2022-12-26T03:26:01.201Z,9.73
2022-12-26T03:30:22.728Z,9.70
2022-12-26T03:34:26.207Z,9.74
2022-12-26T03:38:36.118Z,9.71
2022-12-26T03:43:10.282Z,9.72
2022-12-26T03:47:38.482Z,9.73
2022-12-26T03:52:05.501Z,9.71
2022-12-26T03:56:32.947Z,9.71
2022-12-26T04:00:57.001Z,9.69
2022-12-26T04:05:21.873Z,9.69
2022-12-26T04:09:47.623Z,9.69
2022-12-26T04:14:13.587Z,9.67
2022-12-26T04:18:41.082Z,9.66
2022-12-26T04:23:08.508Z,9.69
2022-12-26T04:27:33.422Z,9.67
2022-12-26T04:32:01.852Z,9.67
2022-12-26T04:36:29.718Z,9.66
2022-12-26T04:40:55.232Z,9.65
2022-12-26T04:45:00.159Z,9.63
2022-12-26T04:49:24.141Z,9.63
2022-12-26T04:53:28.618Z,9.59
2022-12-26T04:57:31.798Z,9.56
2022-12-26T05:01:52.619Z,9.56
2022-12-26T05:06:13.650Z,9.52
2022-12-26T05:10:21.097Z,9.50
2022-12-26T05:14:24.034Z,9.50
2022-12-26T05:18:44.353Z,9.50
2022-12-26T05:23:05.609Z,9.52
2022-12-26T05:27:31.106Z,9.50
2022-12-26T05:31:36.536Z,9.50
2022-12-26T05:35:41.469Z,9.49
2022-12-26T05:39:44.343Z,9.46
2022-12-26T05:43:48.693Z,9.48
2022-12-26T05:47:52.253Z,9.46
2022-12-26T05:51:55.435Z,9.45
2022-12-26T05:56:03.673Z,9.48
2022-12-26T06:00:09.395Z,9.45
2022-12-26T06:04:14.090Z,9.44
2022-12-26T06:08:17.296Z,9.42
2022-12-26T06:12:20.687Z,9.40
2022-12-26T06:16:25.872Z,9.35
2022-12-26T06:20:29.119Z,9.31
2022-12-26T06:24:32.018Z,9.33
2022-12-26T06:28:35.088Z,9.28
2022-12-26T06:32:39.420Z,9.23
2022-12-26T06:36:42.619Z,9.17
2022-12-26T06:40:46.927Z,9.14
2022-12-26T06:44:50.038Z,9.10
2022-12-26T06:48:55.551Z,9.09
2022-12-26T06:52:58.537Z,9.07
2022-12-26T06:57:01.773Z,9.05
2022-12-26T07:01:10.240Z,9.03
2022-12-26T07:05:16.693Z,9.06
2022-12-26T07:09:20.410Z,9.01
2022-12-26T07:13:23.371Z,8.98
2022-12-26T07:17:26.770Z,8.96
2022-12-26T07:21:40.172Z,8.94
2022-12-26T07:25:48.567Z,8.95
2022-12-26T07:29:51.714Z,8.92
2022-12-26T07:33:56.775Z,8.89
2022-12-26T07:38:01.836Z,8.87
2022-12-26T07:42:05.465Z,8.89
2022-12-26T07:46:09.088Z,8.90
2022-12-26T07:50:12.139Z,8.95
2022-12-26T07:54:16.759Z,9.01
2022-12-26T07:58:21.033Z,9.07
2022-12-26T08:02:24.523Z,9.12
2022-12-26T08:06:28.918Z,9.16
2022-12-26T08:10:33.367Z,9.23
2022-12-26T08:14:38.459Z,9.25
2022-12-26T08:18:41.992Z,9.29
2022-12-26T08:22:44.815Z,9.29
2022-12-26T08:26:49.436Z,9.30
2022-12-26T08:30:53.483Z,9.29
2022-12-26T08:34:56.461Z,9.32
2022-12-26T08:39:00.175Z,9.27
2022-12-26T08:43:22.027Z,9.25
2022-12-26T08:47:28.307Z,9.26
2022-12-26T08:51:31.213Z,9.31
2022-12-26T08:55:34.232Z,9.34
2022-12-26T08:59:39.201Z,9.37
2022-12-26T09:03:43.013Z,9.40
2022-12-26T09:07:46.200Z,9.42
2022-12-26T09:11:49.317Z,9.47
2022-12-26T09:15:54.267Z,9.49
2022-12-26T09:19:57.314Z,9.55
2022-12-26T09:24:04.399Z,9.55
2022-12-26T09:28:07.361Z,9.64
2022-12-26T09:32:11.759Z,9.64
2022-12-26T09:36:17.183Z,9.69
2022-12-26T09:40:29.437Z,9.71
2022-12-26T09:44:44.708Z,9.75
2022-12-26T09:48:57.402Z,9.78
2022-12-26T09:53:04.211Z,9.83
2022-12-26T09:57:15.288Z,9.83
2022-12-26T10:01:21.820Z,9.84
2022-12-26T10:05:40.691Z,9.83
2022-12-26T10:09:58.938Z,9.89
2022-12-26T10:14:10.662Z,9.91
2022-12-26T10:18:28.075Z,9.97
2022-12-26T10:22:53.267Z,9.99
2022-12-26T10:27:01.865Z,10.02
2022-12-26T10:31:10.955Z,10.02
2022-12-26T10:35:28.558Z,10.04
2022-12-26T10:39:37.890Z,10.02
2022-12-26T10:43:44.780Z,9.96
2022-12-26T10:47:49.240Z,9.91
2022-12-26T10:51:53.805Z,9.85
2022-12-26T10:56:01.691Z,9.80
2022-12-26T11:00:15.922Z,9.78
2022-12-26T11:04:44.581Z,9.75
2022-12-26T11:08:50.153Z,9.73
2022-12-26T11:12:57.021Z,9.70
2022-12-26T11:17:02.886Z,9.64
2022-12-26T11:21:25.612Z,9.62
2022-12-26T11:25:30.394Z,9.62
2022-12-26T11:29:37.115Z,9.61
2022-12-26T11:33:44.317Z,9.56
2022-12-26T11:37:51.897Z,9.30
2022-12-26T11:41:55.527Z,8.90
2022-12-26T11:46:01.019Z,8.65
2022-12-26T11:50:06.410Z,8.58
2022-12-26T11:54:25.840Z,8.37
2022-12-26T11:58:30.674Z,8.18
2022-12-26T12:02:40.772Z,8.08
2022-12-26T12:07:00.942Z,8.03
2022-12-26T12:11:30.366Z,8.03
2022-12-26T12:15:45.345Z,8.04
2022-12-26T12:19:59.049Z,8.06
2022-12-26T12:24:33.248Z,8.11
2022-12-26T12:29:05.171Z,8.13
2022-12-26T12:33:32.898Z,8.15
2022-12-26T12:37:50.656Z,8.12
2022-12-26T12:42:19.295Z,8.15
2022-12-26T12:46:31.713Z,8.23
2022-12-26T12:50:40.924Z,8.20
2022-12-26T12:55:07.722Z,8.08
2022-12-26T12:59:24.867Z,8.08
2022-12-26T13:10:51.483Z,7.90
2022-12-26T13:15:25.444Z,7.84
2022-12-26T13:19:51.558Z,7.83
2022-12-26T13:24:18.510Z,7.81
2022-12-26T13:28:29.039Z,7.79
2022-12-26T13:32:34.368Z,7.83
2022-12-26T13:36:42.817Z,7.86
2022-12-26T13:40:48.668Z,7.93
2022-12-26T13:44:53.667Z,7.91
2022-12-26T13:49:00.712Z,7.93
2022-12-26T13:53:04.916Z,7.88
2022-12-26T13:57:37.326Z,7.86
2022-12-26T14:01:55.262Z,7.85
2022-12-26T14:06:20.610Z,7.85
2022-12-26T14:10:33.793Z,7.92
2022-12-26T14:14:54.176Z,7.92
2022-12-26T14:19:05.428Z,7.98
2022-12-26T14:23:33.977Z,8.03
2022-12-26T14:27:45.421Z,8.01
2022-12-26T14:32:06.855Z,8.00
2022-12-26T14:36:22.128Z,7.96
2022-12-26T14:40:31.950Z,7.94
2022-12-26T14:44:46.016Z,7.90
2022-12-26T14:48:54.398Z,7.83
2022-12-26T14:53:32.183Z,7.70
2022-12-26T14:57:54.626Z,7.63
2022-12-26T15:02:12.172Z,7.57
2022-12-26T15:06:47.307Z,7.54
2022-12-26T15:11:10.665Z,7.54
2022-12-26T15:15:29.435Z,7.55
2022-12-26T15:20:25.435Z,7.55
2022-12-26T15:29:55.022Z,7.56
2022-12-26T15:34:03.315Z,7.44
2022-12-26T15:38:18.468Z,7.40
2022-12-26T15:42:35.569Z,7.34
2022-12-26T15:46:45.073Z,7.36
2022-12-26T15:50:59.087Z,7.30
2022-12-26T15:55:17.348Z,7.15
2022-12-26T15:59:50.063Z,7.08
2022-12-26T16:03:57.775Z,7.02
2022-12-26T16:08:10.628Z,6.98
2022-12-26T16:12:34.069Z,6.95
2022-12-26T16:16:39.062Z,6.81
2022-12-26T16:21:03.870Z,6.74
2022-12-26T16:25:08.436Z,6.66
2022-12-26T16:29:18.095Z,6.55
2022-12-26T16:33:21.302Z,6.47
2022-12-26T16:37:30.004Z,6.44
2022-12-26T16:41:33.785Z,6.41
2022-12-26T16:45:39.218Z,6.42
2022-12-26T16:49:45.155Z,6.39
2022-12-26T16:53:49.683Z,6.35
2022-12-26T16:57:56.275Z,6.30
2022-12-26T17:02:00.988Z,6.26
2022-12-26T17:06:16.619Z,6.18
2022-12-26T17:10:24.820Z,6.13
2022-12-26T17:14:32.041Z,6.10
2022-12-26T17:18:50.748Z,5.97
2022-12-26T17:22:54.592Z,5.91
2022-12-26T17:27:18.384Z,5.83
2022-12-26T17:31:32.081Z,5.77
2022-12-26T17:36:32.884Z,5.71
2022-12-26T17:40:06.391Z,5.63
2022-12-26T17:44:35.787Z,5.59
2022-12-26T17:48:39.731Z,5.51
2022-12-26T17:52:43.331Z,5.44
2022-12-26T17:56:46.254Z,5.33
2022-12-26T18:00:51.747Z,5.26
2022-12-26T18:04:55.887Z,5.20
2022-12-26T18:08:59.041Z,5.13
2022-12-26T18:13:03.786Z,5.08
2022-12-26T18:17:11.736Z,5.00
2022-12-26T18:21:17.767Z,4.98
2022-12-26T18:25:22.713Z,4.95
2022-12-26T18:29:29.408Z,4.85
2022-12-26T18:33:33.646Z,4.78
2022-12-26T18:37:37.276Z,4.71
2022-12-26T18:41:41.512Z,4.71
2022-12-26T18:45:45.625Z,4.64
2022-12-26T18:49:52.698Z,4.59
2022-12-26T18:53:56.146Z,4.57
2022-12-26T18:58:00.057Z,4.55
2022-12-26T19:02:03.109Z,4.51
2022-12-26T19:06:08.068Z,4.45
2022-12-26T19:10:12.123Z,4.36
2022-12-26T19:14:20.235Z,4.33
2022-12-26T19:18:23.196Z,4.25
2022-12-26T19:22:27.347Z,4.20
2022-12-26T19:26:30.287Z,4.17
2022-12-26T19:30:38.449Z,4.15
2022-12-26T19:34:42.109Z,4.14
2022-12-26T19:38:46.635Z,4.15
2022-12-26T19:42:49.771Z,4.17
2022-12-26T19:47:11.579Z,4.17
2022-12-26T19:51:17.818Z,4.22
2022-12-26T19:55:23.661Z,4.26
2022-12-26T19:59:26.695Z,4.33
2022-12-26T20:03:30.087Z,4.36
2022-12-26T20:07:33.425Z,4.36
2022-12-26T20:11:39.954Z,4.34
2022-12-26T20:15:43.112Z,4.30
2022-12-26T20:19:47.436Z,4.25
2022-12-26T20:23:51.290Z,4.25
2022-12-26T20:27:56.905Z,4.25
2022-12-26T20:32:00.308Z,4.21
2022-12-26T20:36:04.253Z,4.22
2022-12-26T20:40:08.323Z,4.18
2022-12-26T20:44:13.444Z,4.17
2022-12-26T20:48:16.884Z,4.16
2022-12-26T20:52:20.401Z,4.16
2022-12-26T20:56:24.476Z,4.19
2022-12-26T21:00:28.799Z,4.22
2022-12-26T21:04:33.069Z,4.27
2022-12-26T21:08:38.414Z,4.33
2022-12-26T21:12:41.316Z,4.27
2022-12-26T21:16:48.364Z,4.26
2022-12-26T21:20:51.296Z,4.22
2022-12-26T21:24:54.299Z,4.20
2022-12-26T21:28:58.575Z,4.15
2022-12-26T21:33:02.932Z,4.10
2022-12-26T21:37:23.340Z,4.02
2022-12-26T21:41:27.244Z,3.97
2022-12-26T21:45:30.126Z,3.92
2022-12-26T21:49:35.041Z,3.88
2022-12-26T21:53:38.031Z,3.83
2022-12-26T21:57:41.048Z,3.83
2022-12-26T22:01:47.427Z,3.78
2022-12-26T22:05:52.247Z,3.77
2022-12-26T22:09:55.209Z,3.76
2022-12-26T22:14:00.464Z,3.73
2022-12-26T22:18:04.699Z,3.71
2022-12-26T22:22:10.694Z,3.73
2022-12-26T22:26:15.868Z,3.74
2022-12-26T22:30:19.194Z,3.75
2022-12-26T22:34:23.986Z,3.75
2022-12-26T22:38:31.275Z,3.77
2022-12-26T22:42:34.233Z,3.77
2022-12-26T22:46:37.293Z,3.78
2022-12-26T22:50:43.946Z,3.77
2022-12-26T22:54:48.719Z,3.79
2022-12-26T22:58:54.037Z,3.79
2022-12-26T23:02:58.803Z,3.77
2022-12-26T23:07:03.376Z,3.79
2022-12-26T23:11:11.623Z,3.77
2022-12-26T23:15:17.864Z,3.76
2022-12-26T23:19:46.809Z,3.77
2022-12-26T23:23:51.257Z,3.76
2022-12-26T23:28:13.783Z,3.73
2022-12-26T23:32:16.834Z,3.69
2022-12-26T23:36:19.971Z,3.66
2022-12-26T23:40:23.566Z,3.59
2022-12-26T23:44:29.014Z,3.54
2022-12-26T23:48:44.180Z,3.55
2022-12-26T23:52:48.659Z,3.55
2022-12-26T23:56:52.060Z,3.51
